createdAt,value
2022-10-22T00:00:50.505Z,61.87
2022-10-22T00:01:51.037Z,58.17
2022-10-22T00:02:50.452Z,54.62
2022-10-22T00:03:50.455Z,50.60
2022-10-22T00:04:50.351Z,46.41
2022-10-22T00:05:50.352Z,55.43
2022-10-22T00:06:50.367Z,52.85
2022-10-22T00:07:50.374Z,47.70
2022-10-22T00:08:50.386Z,58.01
2022-10-22T00:09:50.349Z,58.33
2022-10-22T00:10:50.294Z,57.52
2022-10-22T00:11:50.271Z,45.44
2022-10-22T00:12:50.255Z,44.15
2022-10-22T00:13:50.297Z,44.15
2022-10-22T00:14:50.249Z,54.14
2022-10-22T00:15:50.247Z,48.18
2022-10-22T00:16:50.252Z,49.31
2022-10-22T00:17:50.219Z,52.37
2022-10-22T00:18:50.199Z,43.51
2022-10-22T00:19:50.228Z,52.53
2022-10-22T00:20:50.203Z,46.57
2022-10-22T00:21:50.172Z,51.72
2022-10-22T00:23:50.164Z,50.11
2022-10-22T00:24:50.191Z,50.76
2022-10-22T00:25:50.156Z,53.50
2022-10-22T00:26:50.136Z,58.97
2022-10-22T00:27:50.133Z,55.75
2022-10-22T00:28:50.108Z,51.88
2022-10-22T00:29:50.072Z,59.14
2022-10-22T00:30:50.099Z,48.34
2022-10-22T00:31:50.088Z,58.01
2022-10-22T00:32:50.100Z,55.75
2022-10-22T00:33:50.044Z,55.43
2022-10-22T00:34:50.013Z,48.82
2022-10-22T00:35:50.006Z,46.89
2022-10-22T00:36:49.998Z,43.99
2022-10-22T00:37:50.008Z,48.34
2022-10-22T00:38:49.957Z,62.20
2022-10-22T00:39:50.156Z,55.43
2022-10-22T00:40:49.999Z,50.11
2022-10-22T00:41:50.128Z,48.98
2022-10-22T00:42:49.948Z,46.41
2022-10-22T00:43:49.984Z,44.15
2022-10-22T00:44:49.946Z,53.01
2022-10-22T00:45:49.857Z,48.50
2022-10-22T00:46:49.908Z,59.78
2022-10-22T00:47:49.890Z,51.40
2022-10-22T00:48:49.855Z,57.85
2022-10-22T00:49:49.964Z,49.47
2022-10-22T00:50:49.825Z,48.34
2022-10-22T00:51:49.812Z,56.24
2022-10-22T00:52:49.825Z,51.08
2022-10-22T00:53:49.811Z,44.96
2022-10-22T00:54:49.807Z,51.72
2022-10-22T00:55:49.850Z,53.66
2022-10-22T00:56:49.734Z,52.21
2022-10-22T00:57:49.793Z,51.24
2022-10-22T00:58:49.723Z,62.84
2022-10-22T00:59:49.693Z,62.04
2022-10-22T01:00:49.797Z,59.14
2022-10-22T01:01:49.681Z,55.75
2022-10-22T01:02:49.728Z,52.85
2022-10-22T01:03:49.761Z,56.56
2022-10-22T01:04:49.630Z,55.43
2022-10-22T01:05:49.717Z,54.14
2022-10-22T01:06:49.770Z,57.04
2022-10-22T01:07:50.585Z,59.62
2022-10-22T01:08:49.640Z,52.21
2022-10-22T01:09:49.578Z,58.65
2022-10-22T01:10:49.610Z,45.60
2022-10-22T01:11:49.742Z,46.25
2022-10-22T01:12:49.810Z,57.20
2022-10-22T01:13:49.674Z,60.42
2022-10-22T01:14:49.523Z,47.05
2022-10-22T01:15:49.558Z,52.53
2022-10-22T01:16:49.513Z,47.70
2022-10-22T01:17:49.479Z,51.72
2022-10-22T01:18:49.550Z,61.55
2022-10-22T01:19:49.482Z,46.08
2022-10-22T01:20:49.456Z,45.28
2022-10-22T01:21:49.494Z,53.33
2022-10-22T01:22:49.415Z,48.50
2022-10-22T01:23:49.422Z,43.99
2022-10-22T01:24:49.403Z,44.96
2022-10-22T01:25:49.363Z,43.51
2022-10-22T01:26:49.415Z,48.98
2022-10-22T01:27:49.387Z,55.43
2022-10-22T01:28:50.580Z,57.52
2022-10-22T01:29:49.365Z,57.85
2022-10-22T01:30:49.335Z,53.33
2022-10-22T01:31:49.359Z,56.40
2022-10-22T01:32:49.319Z,54.14
2022-10-22T01:33:49.939Z,55.59
2022-10-22T01:34:49.324Z,53.17
2022-10-22T01:35:49.263Z,47.70
2022-10-22T01:36:49.256Z,58.81
2022-10-22T01:37:49.267Z,58.49
2022-10-22T01:38:49.236Z,64.61
2022-10-22T01:39:49.206Z,51.08
2022-10-22T01:40:49.292Z,55.91
2022-10-22T01:41:49.233Z,50.43
2022-10-22T01:42:49.223Z,55.91
2022-10-22T01:43:49.463Z,48.82
2022-10-22T01:44:49.157Z,49.95
2022-10-22T01:45:49.235Z,60.75
2022-10-22T01:46:49.192Z,49.79
2022-10-22T01:47:49.201Z,49.95
2022-10-22T01:48:49.191Z,46.73
2022-10-22T01:49:49.160Z,54.62
2022-10-22T01:50:49.149Z,48.82
2022-10-22T01:51:49.085Z,52.69
2022-10-22T01:52:49.142Z,56.24
2022-10-22T01:53:49.131Z,59.14
2022-10-22T01:54:49.133Z,61.55
2022-10-22T01:55:49.168Z,54.79
2022-10-22T01:56:49.135Z,58.97
2022-10-22T01:57:49.126Z,47.05
2022-10-22T01:58:49.110Z,46.73
2022-10-22T01:59:49.012Z,63.33
2022-10-22T02:00:49.117Z,58.81
2022-10-22T02:01:48.948Z,64.29
2022-10-22T02:02:48.980Z,52.53
2022-10-22T02:03:49.024Z,44.47
2022-10-22T02:04:49.961Z,44.47
2022-10-22T02:05:49.022Z,55.43
2022-10-22T02:06:48.952Z,55.11
2022-10-22T02:07:48.933Z,49.95
2022-10-22T02:08:48.970Z,50.43
2022-10-22T02:09:49.495Z,48.82
2022-10-22T02:10:49.216Z,52.85
2022-10-22T02:11:49.040Z,58.81
2022-10-22T02:12:48.913Z,47.21
2022-10-22T02:13:48.865Z,49.79
2022-10-22T02:14:48.868Z,60.75
2022-10-22T02:15:49.042Z,45.60
2022-10-22T02:16:48.875Z,45.44
2022-10-22T02:17:48.905Z,45.76
2022-10-22T02:18:48.790Z,63.49
2022-10-22T02:19:48.733Z,61.55
2022-10-22T02:20:48.913Z,51.56
2022-10-22T02:21:48.766Z,46.25
2022-10-22T02:22:49.601Z,58.81
2022-10-22T02:23:48.848Z,46.41
2022-10-22T02:24:48.727Z,43.67
2022-10-22T02:25:48.774Z,46.25
2022-10-22T02:26:48.723Z,56.40
2022-10-22T02:27:48.782Z,63.00
2022-10-22T02:28:48.797Z,58.65
2022-10-22T02:29:48.766Z,57.20
2022-10-22T02:30:49.466Z,56.40
2022-10-22T02:31:48.727Z,59.14
2022-10-22T02:32:48.760Z,58.65
2022-10-22T02:33:48.714Z,51.56
2022-10-22T02:34:48.602Z,55.91
2022-10-22T02:35:48.774Z,56.24
2022-10-22T02:36:50.421Z,60.75
2022-10-22T02:37:48.743Z,56.72
2022-10-22T02:38:48.762Z,58.49
2022-10-22T02:39:48.735Z,48.66
2022-10-22T02:40:48.646Z,49.31
2022-10-22T02:41:48.619Z,60.59
2022-10-22T02:42:48.722Z,51.72
2022-10-22T02:43:48.667Z,58.33
2022-10-22T02:44:48.755Z,49.79
2022-10-22T02:45:48.622Z,47.37
2022-10-22T02:46:48.658Z,60.59
2022-10-22T02:47:50.483Z,55.43
2022-10-22T02:48:48.911Z,49.79
2022-10-22T02:49:48.563Z,64.13
2022-10-22T02:50:48.723Z,60.59
2022-10-22T02:51:48.579Z,57.52
2022-10-22T02:52:48.527Z,58.01
2022-10-22T02:53:48.683Z,64.29
2022-10-22T02:54:48.535Z,59.78
2022-10-22T02:55:50.023Z,57.52
2022-10-22T02:56:48.543Z,51.40
2022-10-22T02:57:48.491Z,65.42
2022-10-22T02:58:48.344Z,62.04
2022-10-22T02:59:48.335Z,58.65
2022-10-22T03:00:48.424Z,55.91
2022-10-22T03:01:48.259Z,56.40
2022-10-22T03:02:48.247Z,57.36
2022-10-22T03:03:48.260Z,61.55
2022-10-22T03:04:48.256Z,61.07
2022-10-22T03:05:48.275Z,61.23
2022-10-22T03:06:48.270Z,61.23
2022-10-22T03:07:48.200Z,62.20
2022-10-22T03:08:48.234Z,51.08
2022-10-22T03:09:48.172Z,64.29
2022-10-22T03:10:48.171Z,58.17
2022-10-22T03:11:48.175Z,62.36
2022-10-22T03:12:48.124Z,62.84
2022-10-22T03:13:48.133Z,57.04
2022-10-22T03:14:48.115Z,62.36
2022-10-22T03:15:48.124Z,63.16
2022-10-22T03:16:48.056Z,63.81
2022-10-22T03:17:48.092Z,63.65
2022-10-22T03:18:48.086Z,62.52
2022-10-22T03:19:48.022Z,63.33
2022-10-22T03:20:48.055Z,60.10
2022-10-22T03:21:48.056Z,63.97
2022-10-22T03:22:48.057Z,63.00
2022-10-22T03:23:47.957Z,64.78
2022-10-22T03:24:48.181Z,59.14
2022-10-22T03:25:48.077Z,62.04
2022-10-22T03:26:49.001Z,46.73
2022-10-22T03:27:47.976Z,60.10
2022-10-22T03:28:47.900Z,57.85
2022-10-22T03:29:48.114Z,62.68
2022-10-22T03:30:48.081Z,60.42
2022-10-22T03:31:47.913Z,61.23
2022-10-22T03:32:47.882Z,64.78
2022-10-22T03:33:47.860Z,57.20
2022-10-22T03:34:47.932Z,67.68
2022-10-22T03:35:47.858Z,64.45
2022-10-22T03:36:47.889Z,61.39
2022-10-22T03:37:47.837Z,65.90
2022-10-22T03:38:47.826Z,57.36
2022-10-22T03:39:47.812Z,60.91
2022-10-22T03:40:47.808Z,59.46
2022-10-22T03:41:47.805Z,65.42
2022-10-22T03:42:47.793Z,67.84
2022-10-22T03:43:47.742Z,62.36
2022-10-22T03:44:47.731Z,65.58
2022-10-22T03:45:47.724Z,66.23
2022-10-22T03:46:47.731Z,59.14
2022-10-22T03:47:47.709Z,57.52
2022-10-22T03:48:47.722Z,58.97
2022-10-22T03:49:47.737Z,68.16
2022-10-22T03:50:47.681Z,57.36
2022-10-22T03:51:47.685Z,58.81
2022-10-22T03:52:47.656Z,61.39
2022-10-22T03:53:47.650Z,61.23
2022-10-22T03:54:47.635Z,67.03
2022-10-22T03:55:47.623Z,62.20
2022-10-22T03:56:47.582Z,60.75
2022-10-22T03:57:47.610Z,64.13
2022-10-22T03:58:47.562Z,64.61
2022-10-22T03:59:47.592Z,50.11
2022-10-22T04:00:47.582Z,57.85
2022-10-22T04:01:47.508Z,63.65
2022-10-22T04:02:47.558Z,63.00
2022-10-22T04:03:47.508Z,67.19
2022-10-22T04:04:47.518Z,66.23
2022-10-22T04:05:47.507Z,61.55
2022-10-22T04:06:47.499Z,64.29
2022-10-22T04:07:47.469Z,64.94
2022-10-22T04:08:47.510Z,63.16
2022-10-22T04:09:47.438Z,62.84
2022-10-22T04:10:47.451Z,66.06
2022-10-22T04:11:47.382Z,66.87
2022-10-22T04:12:47.519Z,63.49
2022-10-22T04:13:47.383Z,64.78
2022-10-22T04:14:47.386Z,57.20
2022-10-22T04:15:47.355Z,67.84
2022-10-22T04:16:47.344Z,58.97
2022-10-22T04:17:47.319Z,64.94
2022-10-22T04:18:47.388Z,68.96
2022-10-22T04:19:47.291Z,68.00
2022-10-22T04:20:47.304Z,68.00
2022-10-22T04:21:47.283Z,57.20
2022-10-22T04:22:47.305Z,66.55
2022-10-22T04:23:47.267Z,67.51
2022-10-22T04:24:47.330Z,63.33
2022-10-22T04:25:47.270Z,62.84
2022-10-22T04:26:47.235Z,65.90
2022-10-22T04:27:47.215Z,65.42
2022-10-22T04:28:47.232Z,58.65
2022-10-22T04:29:47.223Z,55.43
2022-10-22T04:30:47.169Z,58.49
2022-10-22T04:31:47.176Z,63.81
2022-10-22T04:32:47.208Z,63.49
2022-10-22T04:33:47.127Z,67.68
2022-10-22T04:34:47.148Z,64.61
2022-10-22T04:35:47.144Z,63.65
2022-10-22T04:36:47.214Z,67.03
2022-10-22T04:37:48.046Z,66.55
2022-10-22T04:38:47.088Z,68.64
2022-10-22T04:39:47.109Z,66.23
2022-10-22T04:40:47.088Z,64.94
2022-10-22T04:41:47.065Z,64.94
2022-10-22T04:42:47.080Z,62.68
2022-10-22T04:43:47.076Z,66.06
2022-10-22T04:44:47.116Z,64.61
2022-10-22T04:45:47.068Z,63.33
2022-10-22T04:46:46.985Z,59.46
2022-10-22T04:47:47.012Z,65.90
2022-10-22T04:48:46.933Z,60.91
2022-10-22T04:49:46.974Z,61.07
2022-10-22T04:50:46.941Z,64.94
2022-10-22T04:51:46.924Z,61.39
2022-10-22T04:52:46.896Z,62.84
2022-10-22T04:53:46.935Z,62.68
2022-10-22T04:54:46.929Z,65.10
2022-10-22T04:55:46.933Z,66.55
2022-10-22T04:56:46.862Z,63.65
2022-10-22T04:57:46.881Z,54.95
2022-10-22T04:58:46.862Z,64.13
2022-10-22T04:59:46.837Z,64.78
2022-10-22T05:00:46.841Z,63.65
2022-10-22T05:01:46.814Z,57.36
2022-10-22T05:02:46.862Z,63.81
2022-10-22T05:03:46.772Z,64.45
2022-10-22T05:04:46.800Z,67.19
2022-10-22T05:05:46.789Z,64.61
2022-10-22T05:06:46.732Z,62.36
2022-10-22T05:07:46.746Z,64.94
2022-10-22T05:08:46.760Z,69.77
2022-10-22T05:09:46.697Z,63.33
2022-10-22T05:10:46.705Z,62.36
2022-10-22T05:11:46.739Z,63.65
2022-10-22T05:12:46.659Z,64.45
2022-10-22T05:13:46.686Z,60.10
2022-10-22T05:14:47.514Z,67.68
2022-10-22T05:15:46.621Z,63.00
2022-10-22T05:17:47.628Z,66.06
2022-10-22T05:18:46.594Z,66.39
2022-10-22T05:19:46.760Z,61.87
2022-10-22T05:20:46.655Z,57.85
2022-10-22T05:21:46.602Z,58.33
2022-10-22T05:22:46.571Z,64.29
2022-10-22T05:23:46.562Z,63.97
2022-10-22T05:24:46.559Z,62.20
2022-10-22T05:25:46.592Z,63.49
2022-10-22T05:26:46.508Z,60.91
2022-10-22T05:27:46.494Z,64.13
2022-10-22T05:28:46.494Z,65.10
2022-10-22T05:29:46.499Z,64.61
2022-10-22T05:30:46.454Z,64.45
2022-10-22T05:31:46.462Z,64.61
2022-10-22T05:32:46.452Z,62.04
2022-10-22T05:33:46.435Z,61.87
2022-10-22T05:34:46.430Z,66.71
2022-10-22T05:35:46.879Z,67.03
2022-10-22T05:36:47.391Z,54.79
2022-10-22T05:37:46.434Z,64.45
2022-10-22T05:38:46.361Z,59.14
2022-10-22T05:39:46.397Z,58.65
2022-10-22T05:40:46.335Z,65.26
2022-10-22T05:41:46.350Z,70.25
2022-10-22T05:42:46.335Z,67.84
2022-10-22T05:43:46.537Z,68.64
2022-10-22T05:44:46.331Z,69.61
2022-10-22T05:45:46.355Z,66.23
2022-10-22T05:46:46.267Z,66.23
2022-10-22T05:47:46.235Z,64.78
2022-10-22T05:48:46.279Z,69.29
2022-10-22T05:49:46.244Z,66.87
2022-10-22T05:50:46.245Z,65.42
2022-10-22T05:51:46.256Z,62.84
2022-10-22T05:52:46.204Z,65.58
2022-10-22T05:53:46.208Z,66.23
2022-10-22T05:54:46.186Z,63.65
2022-10-22T05:55:46.193Z,65.26
2022-10-22T05:56:46.194Z,67.84
2022-10-22T05:57:46.181Z,58.81
2022-10-22T05:58:46.163Z,63.81
2022-10-22T05:59:46.152Z,53.82
2022-10-22T06:00:46.233Z,64.94
2022-10-22T06:01:46.211Z,59.78
2022-10-22T06:02:46.096Z,60.10
2022-10-22T06:03:47.005Z,67.35
2022-10-22T06:04:46.093Z,65.26
2022-10-22T06:05:46.059Z,64.94
2022-10-22T06:06:46.034Z,64.94
2022-10-22T06:07:46.021Z,62.04
2022-10-22T06:08:46.108Z,63.33
2022-10-22T06:09:46.028Z,63.97
2022-10-22T06:10:45.986Z,64.94
2022-10-22T06:11:45.988Z,67.35
2022-10-22T06:12:45.941Z,66.39
2022-10-22T06:13:45.976Z,63.33
2022-10-22T06:14:45.953Z,57.20
2022-10-22T06:15:45.997Z,67.03
2022-10-22T06:16:45.996Z,63.65
2022-10-22T06:17:45.933Z,61.87
2022-10-22T06:18:45.922Z,67.35
2022-10-22T06:19:45.967Z,64.13
2022-10-22T06:20:45.878Z,66.06
2022-10-22T06:21:45.864Z,65.90
2022-10-22T06:22:45.831Z,66.39
2022-10-22T06:23:45.892Z,68.48
2022-10-22T06:24:45.846Z,66.55
2022-10-22T06:25:45.798Z,69.13
2022-10-22T06:26:45.885Z,68.80
2022-10-22T06:27:45.790Z,67.84
2022-10-22T06:28:45.746Z,67.19
2022-10-22T06:29:45.778Z,66.39
2022-10-22T06:30:46.683Z,65.26
2022-10-22T06:31:46.748Z,63.81
2022-10-22T06:32:45.750Z,67.68
2022-10-22T06:33:45.752Z,66.23
2022-10-22T06:34:45.719Z,68.48
2022-10-22T06:35:46.694Z,68.64
2022-10-22T06:36:45.681Z,67.35
2022-10-22T06:37:45.651Z,68.32
2022-10-22T06:38:45.656Z,67.51
2022-10-22T06:39:45.637Z,61.55
2022-10-22T06:40:45.646Z,67.68
2022-10-22T06:41:45.619Z,68.96
2022-10-22T06:42:45.583Z,68.32
2022-10-22T06:43:45.587Z,69.45
2022-10-22T06:44:45.550Z,70.90
2022-10-22T06:45:45.564Z,67.19
2022-10-22T06:46:45.557Z,67.35
2022-10-22T06:47:45.531Z,68.96
2022-10-22T06:48:45.575Z,63.97
2022-10-22T06:49:45.492Z,69.77
2022-10-22T06:50:45.564Z,68.64
2022-10-22T06:51:45.496Z,68.48
2022-10-22T06:52:45.448Z,66.55
2022-10-22T06:53:45.510Z,67.19
2022-10-22T06:54:45.442Z,67.68
2022-10-22T06:55:45.456Z,70.74
2022-10-22T06:56:45.438Z,67.03
2022-10-22T06:57:45.427Z,66.39
2022-10-22T06:58:45.407Z,70.09
2022-10-22T06:59:45.402Z,62.84
2022-10-22T07:00:45.401Z,65.90
2022-10-22T07:01:45.417Z,67.19
2022-10-22T07:02:45.361Z,67.19
2022-10-22T07:03:45.329Z,67.84
2022-10-22T07:04:45.351Z,70.74
2022-10-22T07:05:45.358Z,66.06
2022-10-22T07:06:45.349Z,67.35
2022-10-22T07:07:45.305Z,66.55
2022-10-22T07:08:45.354Z,68.16
2022-10-22T07:09:45.297Z,68.64
2022-10-22T07:10:45.311Z,65.42
2022-10-22T07:11:45.268Z,63.16
2022-10-22T07:12:45.260Z,69.29
2022-10-22T07:13:45.228Z,67.51
2022-10-22T07:14:45.256Z,63.33
2022-10-22T07:15:45.201Z,68.64
2022-10-22T07:16:46.369Z,68.80
2022-10-22T07:17:45.859Z,70.42
2022-10-22T07:18:45.176Z,69.93
2022-10-22T07:19:48.423Z,69.13
2022-10-22T07:20:47.150Z,67.03
2022-10-22T07:21:45.146Z,68.16
2022-10-22T07:22:45.907Z,66.87
2022-10-22T07:23:45.119Z,71.70
2022-10-22T07:24:45.099Z,71.22
2022-10-22T07:25:45.181Z,66.39
2022-10-22T07:26:45.115Z,69.77
2022-10-22T07:27:45.067Z,68.96
2022-10-22T07:28:45.024Z,67.84
2022-10-22T07:29:45.067Z,70.25
2022-10-22T07:30:45.073Z,67.84
2022-10-22T07:31:45.036Z,68.96
2022-10-22T07:32:45.007Z,70.09
2022-10-22T07:33:44.998Z,70.25
2022-10-22T07:34:44.978Z,70.90
2022-10-22T07:35:44.958Z,70.42
2022-10-22T07:36:44.975Z,67.51
2022-10-22T07:37:44.935Z,68.48
2022-10-22T07:38:44.935Z,68.80
2022-10-22T07:39:44.963Z,68.64
2022-10-22T07:40:44.896Z,67.68
2022-10-22T07:41:44.907Z,68.32
2022-10-22T07:42:44.894Z,66.39
2022-10-22T07:43:44.865Z,66.71
2022-10-22T07:44:44.868Z,68.16
2022-10-22T07:45:44.859Z,66.87
2022-10-22T07:46:48.111Z,65.90
2022-10-22T07:47:45.840Z,69.29
2022-10-22T07:48:44.828Z,71.06
2022-10-22T07:49:44.804Z,71.06
2022-10-22T07:51:45.785Z,65.10
2022-10-22T07:52:44.769Z,66.06
2022-10-22T07:53:44.775Z,67.68
2022-10-22T07:54:44.788Z,67.51
2022-10-22T07:55:44.730Z,66.87
2022-10-22T07:56:44.740Z,66.23
2022-10-22T07:57:44.748Z,66.06
2022-10-22T07:58:44.720Z,68.00
2022-10-22T07:59:44.892Z,68.48
2022-10-22T08:00:44.996Z,67.19
2022-10-22T08:01:45.555Z,68.32
2022-10-22T08:02:44.669Z,68.32
2022-10-22T08:03:44.664Z,68.16
2022-10-22T08:04:44.688Z,66.06
2022-10-22T08:05:44.620Z,66.39
2022-10-22T08:06:47.211Z,68.96
2022-10-22T08:07:44.629Z,68.96
2022-10-22T08:08:44.637Z,69.77
2022-10-22T08:09:44.584Z,69.61
2022-10-22T08:10:44.627Z,67.68
2022-10-22T08:11:44.550Z,68.00
2022-10-22T08:12:44.833Z,67.68
2022-10-22T08:13:45.803Z,67.03
2022-10-22T08:14:45.522Z,72.67
2022-10-22T08:16:44.492Z,68.48
2022-10-22T08:17:45.493Z,65.10
2022-10-22T08:18:44.478Z,67.68
2022-10-22T08:19:44.516Z,67.03
2022-10-22T08:20:44.437Z,70.25
2022-10-22T08:21:44.436Z,72.51
2022-10-22T08:22:44.438Z,70.74
2022-10-22T08:23:44.430Z,70.74
2022-10-22T08:24:44.405Z,69.13
2022-10-22T08:25:44.430Z,66.55
2022-10-22T08:26:44.374Z,70.42
2022-10-22T08:27:44.404Z,70.25
2022-10-22T08:28:44.350Z,68.16
2022-10-22T08:29:44.353Z,63.16
2022-10-22T08:30:44.353Z,71.38
2022-10-22T08:31:44.310Z,68.00
2022-10-22T08:32:44.322Z,71.22
2022-10-22T08:33:44.283Z,67.51
2022-10-22T08:34:44.468Z,70.58
2022-10-22T08:35:44.297Z,69.77
2022-10-22T08:36:44.257Z,68.96
2022-10-22T08:37:44.369Z,68.00
2022-10-22T08:38:44.249Z,70.09
2022-10-22T08:39:44.234Z,71.38
2022-10-22T08:40:44.309Z,71.06
2022-10-22T08:41:44.235Z,71.06
2022-10-22T08:42:44.334Z,70.74
2022-10-22T08:43:44.158Z,67.68
2022-10-22T08:44:44.184Z,68.32
2022-10-22T08:45:44.158Z,70.58
2022-10-22T08:46:44.151Z,71.38
2022-10-22T08:47:44.119Z,70.90
2022-10-22T08:48:44.122Z,70.25
2022-10-22T08:49:44.115Z,71.70
2022-10-22T08:50:44.098Z,66.39
2022-10-22T08:51:44.086Z,72.19
2022-10-22T08:52:44.104Z,71.70
2022-10-22T08:53:44.070Z,68.64
2022-10-22T08:54:44.036Z,68.64
2022-10-22T08:55:44.025Z,70.42
2022-10-22T08:56:44.036Z,72.03
2022-10-22T08:57:45.652Z,71.06
2022-10-22T08:58:44.019Z,70.25
2022-10-22T08:59:43.989Z,69.77
2022-10-22T09:00:43.992Z,69.77
2022-10-22T09:01:43.959Z,71.70
2022-10-22T09:02:44.231Z,70.25
2022-10-22T09:03:43.934Z,70.58
2022-10-22T09:04:43.957Z,70.74
2022-10-22T09:05:44.029Z,69.61
2022-10-22T09:06:43.927Z,68.64
2022-10-22T09:07:44.122Z,67.19
2022-10-22T09:08:43.947Z,70.74
2022-10-22T09:09:43.875Z,68.64
2022-10-22T09:10:44.472Z,70.42
2022-10-22T09:11:43.859Z,68.64
2022-10-22T09:12:43.848Z,68.96
2022-10-22T09:13:43.827Z,68.64
2022-10-22T09:14:43.835Z,70.90
2022-10-22T09:15:46.473Z,70.90
2022-10-22T09:16:43.820Z,71.22
2022-10-22T09:17:44.255Z,71.06
2022-10-22T09:18:43.807Z,69.29
2022-10-22T09:19:43.793Z,70.09
2022-10-22T09:20:43.809Z,72.19
2022-10-22T09:21:43.737Z,72.35
2022-10-22T09:22:43.713Z,70.74
2022-10-22T09:23:43.714Z,66.39
2022-10-22T09:24:43.717Z,68.80
2022-10-22T09:25:43.693Z,70.74
2022-10-22T09:26:43.688Z,70.58
2022-10-22T09:27:44.126Z,69.61
2022-10-22T09:28:43.673Z,69.61
2022-10-22T09:29:43.685Z,70.09
2022-10-22T09:30:44.757Z,68.64
2022-10-22T09:31:43.617Z,66.39
2022-10-22T09:32:43.939Z,68.48
2022-10-22T09:33:43.613Z,68.32
2022-10-22T09:34:43.626Z,72.51
2022-10-22T09:35:44.474Z,68.64
2022-10-22T09:36:43.591Z,69.61
2022-10-22T09:37:43.551Z,68.96
2022-10-22T09:38:43.562Z,68.64
2022-10-22T09:39:43.638Z,68.64
2022-10-22T09:40:43.522Z,70.42
2022-10-22T09:41:43.538Z,69.61
2022-10-22T09:42:43.814Z,71.06
2022-10-22T09:43:43.502Z,71.70
2022-10-22T09:44:46.194Z,70.74
2022-10-22T09:45:44.143Z,70.74
2022-10-22T09:46:44.481Z,68.16
2022-10-22T09:48:01.125Z,69.61
2022-10-22T09:48:44.650Z,71.06
2022-10-22T09:49:43.442Z,70.42
2022-10-22T09:50:43.426Z,70.90
2022-10-22T09:51:43.406Z,68.16
2022-10-22T09:52:43.849Z,68.80
2022-10-22T09:53:43.374Z,70.09
2022-10-22T09:54:43.731Z,70.90
2022-10-22T09:55:43.403Z,73.32
2022-10-22T09:56:43.343Z,68.64
2022-10-22T09:57:44.467Z,70.25
2022-10-22T09:58:43.356Z,70.09
2022-10-22T09:59:43.994Z,69.61
2022-10-22T10:00:43.350Z,69.61
2022-10-22T10:01:43.287Z,71.22
2022-10-22T10:02:43.339Z,69.61
2022-10-22T10:03:43.274Z,68.64
2022-10-22T10:04:46.356Z,68.80
2022-10-22T10:05:43.639Z,68.00
2022-10-22T10:06:43.267Z,70.25
2022-10-22T10:07:43.710Z,68.48
2022-10-22T10:08:43.272Z,71.06
2022-10-22T10:09:43.192Z,71.54
2022-10-22T10:10:43.240Z,66.71
2022-10-22T10:11:43.201Z,67.19
2022-10-22T10:12:43.231Z,70.74
2022-10-22T10:13:43.287Z,72.51
2022-10-22T10:14:43.224Z,67.03
2022-10-22T10:15:43.336Z,67.84
2022-10-22T10:16:43.231Z,74.60
2022-10-22T10:17:43.524Z,72.03
2022-10-22T10:18:43.151Z,71.70
2022-10-22T10:19:43.179Z,71.06
2022-10-22T10:20:43.188Z,70.90
2022-10-22T10:21:43.080Z,68.32
2022-10-22T10:22:43.549Z,68.96
2022-10-22T10:23:43.088Z,69.61
2022-10-22T10:24:43.363Z,68.32
2022-10-22T10:25:43.095Z,70.90
2022-10-22T10:26:43.096Z,71.22
2022-10-22T10:27:43.380Z,71.70
2022-10-22T10:28:43.060Z,71.22
2022-10-22T10:29:42.998Z,72.19
2022-10-22T10:30:43.005Z,68.96
2022-10-22T10:31:42.979Z,67.68
2022-10-22T10:32:43.564Z,72.99
2022-10-22T10:33:43.254Z,72.19
2022-10-22T10:34:43.022Z,72.83
2022-10-22T10:35:42.933Z,72.19
2022-10-22T10:36:42.956Z,72.19
2022-10-22T10:37:43.005Z,70.58
2022-10-22T10:38:43.145Z,70.42
2022-10-22T10:39:53.364Z,68.64
2022-10-22T10:40:44.757Z,72.51
2022-10-22T10:41:44.258Z,72.03
2022-10-22T10:42:43.724Z,72.67
2022-10-22T10:43:43.046Z,67.19
2022-10-22T10:44:43.221Z,69.93
2022-10-22T10:45:43.521Z,65.58
2022-10-22T10:46:42.827Z,69.61
2022-10-22T10:47:44.421Z,69.77
2022-10-22T10:48:42.805Z,71.06
2022-10-22T10:49:42.789Z,69.61
2022-10-22T10:50:42.827Z,71.54
2022-10-22T10:51:42.877Z,71.70
2022-10-22T10:52:42.823Z,70.90
2022-10-22T10:53:42.932Z,70.25
2022-10-22T10:54:42.791Z,71.38
2022-10-22T10:55:42.725Z,70.25
2022-10-22T10:56:42.783Z,67.19
2022-10-22T10:57:43.914Z,68.80
2022-10-22T10:58:42.702Z,69.77
2022-10-22T10:59:42.742Z,70.09
2022-10-22T11:00:42.923Z,69.77
2022-10-22T11:01:42.982Z,70.74
2022-10-22T11:02:45.441Z,70.09
2022-10-22T11:03:42.651Z,71.54
2022-10-22T11:04:42.682Z,69.13
2022-10-22T11:05:42.695Z,71.06
2022-10-22T11:06:42.654Z,68.96
2022-10-22T11:07:42.590Z,69.61
2022-10-22T11:08:43.706Z,70.90
2022-10-22T11:09:42.676Z,68.96
2022-10-22T11:10:42.697Z,72.51
2022-10-22T11:11:42.561Z,69.13
2022-10-22T11:12:42.824Z,71.54
2022-10-22T11:13:42.598Z,70.74
2022-10-22T11:14:42.534Z,69.77
2022-10-22T11:15:42.507Z,72.03
2022-10-22T11:16:42.490Z,71.22
2022-10-22T11:17:42.483Z,68.64
2022-10-22T11:18:42.459Z,68.64
2022-10-22T11:19:52.269Z,68.96
2022-10-22T11:20:44.466Z,69.77
2022-10-22T11:21:42.567Z,67.84
2022-10-22T11:23:00.413Z,70.09
2022-10-22T11:23:44.418Z,68.00
2022-10-22T11:24:42.655Z,68.64
2022-10-22T11:25:42.388Z,71.06
2022-10-22T11:26:42.380Z,69.45
2022-10-22T11:27:42.949Z,70.09
2022-10-22T11:28:43.012Z,68.48
2022-10-22T11:29:42.343Z,70.90
2022-10-22T11:30:42.338Z,69.77
2022-10-22T11:31:42.368Z,68.16
2022-10-22T11:32:43.581Z,67.51
2022-10-22T11:33:42.408Z,68.80
2022-10-22T11:34:42.309Z,69.61
2022-10-22T11:35:42.315Z,72.19
2022-10-22T11:36:42.261Z,68.96
2022-10-22T11:37:42.634Z,69.29
2022-10-22T11:38:42.264Z,70.90
2022-10-22T11:39:42.244Z,70.25
2022-10-22T11:40:42.232Z,68.96
2022-10-22T11:41:42.565Z,70.90
2022-10-22T11:42:42.220Z,67.03
2022-10-22T11:43:42.235Z,72.51
2022-10-22T11:44:42.271Z,70.58
2022-10-22T11:45:42.162Z,72.51
2022-10-22T11:46:42.253Z,72.83
2022-10-22T11:47:42.567Z,67.84
2022-10-22T11:48:42.124Z,68.32
2022-10-22T11:49:42.896Z,70.90
2022-10-22T11:50:42.117Z,71.06
2022-10-22T11:51:42.172Z,70.25
2022-10-22T11:52:42.121Z,69.77
2022-10-22T11:53:42.338Z,71.06
2022-10-22T11:54:42.077Z,70.74
2022-10-22T11:55:42.057Z,70.09
2022-10-22T11:56:42.065Z,70.58
2022-10-22T11:57:42.458Z,69.93
2022-10-22T11:58:42.082Z,70.74
2022-10-22T11:59:42.102Z,69.61
2022-10-22T12:00:42.080Z,70.74
2022-10-22T12:01:42.589Z,70.09
2022-10-22T12:02:42.390Z,72.35
2022-10-22T12:03:43.357Z,70.90
2022-10-22T12:04:42.119Z,69.13
2022-10-22T12:05:42.005Z,70.74
2022-10-22T12:06:42.926Z,70.25
2022-10-22T12:07:43.070Z,68.80
2022-10-22T12:08:42.979Z,70.74
2022-10-22T12:09:41.929Z,71.54
2022-10-22T12:10:41.980Z,71.54
2022-10-22T12:11:41.946Z,69.45
2022-10-22T12:12:42.288Z,70.25
2022-10-22T12:13:41.938Z,67.84
2022-10-22T12:14:44.701Z,68.64
2022-10-22T12:15:41.839Z,71.70
2022-10-22T12:16:55.556Z,72.99
2022-10-22T12:17:43.842Z,70.25
2022-10-22T12:18:41.829Z,71.06
2022-10-22T12:19:41.972Z,69.45
2022-10-22T12:20:41.779Z,69.77
2022-10-22T12:21:41.778Z,71.22
2022-10-22T12:22:42.338Z,68.48
2022-10-22T12:23:41.945Z,72.03
2022-10-22T12:24:41.834Z,71.54
2022-10-22T12:25:41.734Z,69.45
2022-10-22T12:26:41.764Z,69.29
2022-10-22T12:27:42.054Z,68.80
2022-10-22T12:28:41.726Z,71.87
2022-10-22T12:29:41.710Z,70.58
2022-10-22T12:30:42.651Z,69.45
2022-10-22T12:31:42.428Z,72.19
2022-10-22T12:32:41.683Z,66.87
2022-10-22T12:33:41.658Z,70.90
2022-10-22T12:34:41.678Z,72.03
2022-10-22T12:35:41.688Z,72.51
2022-10-22T12:36:41.635Z,69.93
2022-10-22T12:37:41.961Z,68.80
2022-10-22T12:38:41.614Z,68.80
2022-10-22T12:39:41.888Z,69.77
2022-10-22T12:40:45.843Z,69.93
2022-10-22T12:41:43.607Z,70.42
2022-10-22T12:42:41.671Z,68.48
2022-10-22T12:43:41.537Z,72.03
2022-10-22T12:44:43.139Z,67.84
2022-10-22T12:45:43.482Z,69.77
2022-10-22T12:46:41.527Z,69.45
2022-10-22T12:47:41.829Z,67.19
2022-10-22T12:48:41.710Z,69.45
2022-10-22T12:49:41.560Z,68.16
2022-10-22T12:50:41.627Z,69.29
2022-10-22T12:51:41.492Z,71.06
2022-10-22T12:52:41.732Z,68.00
2022-10-22T12:53:41.845Z,71.54
2022-10-22T12:54:43.907Z,70.42
2022-10-22T12:55:41.526Z,72.19
2022-10-22T12:56:42.600Z,68.48